Terminal Aerodrome Forecast
Issued by NWS Corpus Christi, TX

Home | Current Version | Previous Version | Text Only | Print | Product List | Glossary On
Versions: 1 2 3 4 5 6 7 8 9 10 11 12
650
FTUS44 KCRP 101120
TAFCRP
TAF
KCRP 101120Z 1012/1112 VRB04KT P6SM SKC
     FM101600 23008KT P6SM SKC
     FM102000 15012KT P6SM SKC
     FM110100 18008KT P6SM SKC=

USA.gov is the U.S. government's official web portal to all federal, state and local government web resources and services.